This is the latest recevied weather packets stored in our database for station/object IZ8QAD-4. If no packets are shown the sender has not sent any weather packets the latest 10 day(s).
| Time | Temp. | Humidity | Pressure | Rain* | Wind** | Luminosity | Snow |
|---|---|---|---|---|---|---|---|
| 1777569384 | 23.89° C | 36% | 971.4 hPa | - | - | - | - |
| 1777567583 | 23.89° C | 36% | 971.2 hPa | - | - | - | - |
| 1777565783 | 23.89° C | 36% | 971.2 hPa | - | - | - | - |
| 1777564853 | 23.89° C | 36% | 970.9 hPa | - | - | - | - |
| 1777563983 | 23.89° C | 35% | 971 hPa | - | - | - | - |
| 1777562183 | 23.89° C | 36% | 970.9 hPa | - | - | - | - |
| 1777560387 | 23.89° C | 36% | 970.7 hPa | - | - | - | - |
| 1777558600 | 24.44° C | 35% | 970.6 hPa | - | - | - | - |
| 1777556785 | 24.44° C | 36% | 970.7 hPa | - | - | - | - |
| 1777554985 | 24.44° C | 36% | 970.7 hPa | - | - | - | - |
| 1777553184 | 24.44° C | 36% | 970.7 hPa | - | - | - | - |
| 1777551384 | 24.44° C | 37% | 971.1 hPa | - | - | - | - |
| 1777549584 | 24.44° C | 38% | 971.1 hPa | - | - | - | - |
| 1777547784 | 24.44° C | 39% | 971 hPa | - | - | - | - |
| 1777545984 | 23.89° C | 40% | 970.7 hPa | - | - | - | - |
| 1777544183 | 23.89° C | 41% | 970.7 hPa | - | - | - | - |
| 1777542383 | 22.78° C | 39% | 970.7 hPa | - | - | - | - |
| 1777540583 | 25° C | 45% | 970.8 hPa | - | - | - | - |
| 1777538795 | 24.44° C | 39% | 970.2 hPa | - | - | - | - |
| 1777538783 | 25.56° C | 47% | 970.4 hPa | - | - | - | - |
| 1777536983 | 24.44° C | 39% | 970.2 hPa | - | - | - | - |
| 1777535184 | 24.44° C | 38% | 969.7 hPa | - | - | - | - |
| 1777533383 | 24.44° C | 37% | 969.5 hPa | - | - | - | - |
| 1777531583 | 24.44° C | 37% | 969.7 hPa | - | - | - | - |
| 1777529783 | 24.44° C | 36% | 969.4 hPa | - | - | - | - |
* Rain since midnight (hover to see other rain measurements)
** Current wind speed in m/s (hover to see current wind gust speed)